createdAt,value
2023-04-21T00:01:39.502Z,9.90
2023-04-21T00:04:28.766Z,10.00
2023-04-21T00:07:17.149Z,10.00
2023-04-21T00:10:07.264Z,10.00
2023-04-21T00:12:55.553Z,10.00
2023-04-21T00:15:43.596Z,10.00
2023-04-21T00:18:31.692Z,10.00
2023-04-21T00:21:19.755Z,10.00
2023-04-21T00:24:08.117Z,10.00
2023-04-21T00:26:57.466Z,10.00
2023-04-21T00:29:45.484Z,10.00
2023-04-21T00:32:33.530Z,10.10
2023-04-21T00:35:21.548Z,10.10
2023-04-21T00:38:09.536Z,10.10
2023-04-21T00:40:57.885Z,10.00
2023-04-21T00:44:02.701Z,10.00
2023-04-21T00:46:50.810Z,10.00
2023-04-21T00:49:38.940Z,10.00
2023-04-21T00:52:27.526Z,10.00
2023-04-21T00:55:15.544Z,10.00
2023-04-21T00:58:03.776Z,10.00
2023-04-21T01:00:53.196Z,10.00
2023-04-21T01:03:41.486Z,10.00
2023-04-21T01:06:30.139Z,9.90
2023-04-21T01:09:18.697Z,9.90
2023-04-21T01:12:08.305Z,9.90
2023-04-21T01:14:56.428Z,9.90
2023-04-21T01:17:46.054Z,9.90
2023-04-21T01:20:34.602Z,9.90
2023-04-21T01:23:23.963Z,9.90
2023-04-21T01:26:12.196Z,9.90
2023-04-21T01:29:00.261Z,9.90
2023-04-21T01:31:48.369Z,9.90
2023-04-21T01:34:37.575Z,9.90
2023-04-21T01:37:27.930Z,9.90
2023-04-21T01:40:17.328Z,9.90
2023-04-21T01:43:05.945Z,9.90
2023-04-21T01:45:54.345Z,9.90
2023-04-21T01:48:42.391Z,9.90
2023-04-21T01:51:31.286Z,9.90
2023-04-21T01:54:19.290Z,9.90
2023-04-21T01:57:08.853Z,9.90
2023-04-21T01:59:57.559Z,9.90
2023-04-21T02:02:45.769Z,9.90
2023-04-21T02:05:33.962Z,9.90
2023-04-21T02:08:22.017Z,9.90
2023-04-21T02:11:10.005Z,9.80
2023-04-21T02:13:59.394Z,9.80
2023-04-21T02:16:47.426Z,9.90
2023-04-21T02:19:35.484Z,9.80
2023-04-21T02:22:23.508Z,9.90
2023-04-21T02:25:11.569Z,9.80
2023-04-21T02:27:59.889Z,9.80
2023-04-21T02:30:49.330Z,9.80
2023-04-21T02:33:37.542Z,9.80
2023-04-21T02:36:26.194Z,9.80
2023-04-21T02:39:14.185Z,9.70
2023-04-21T02:42:02.632Z,9.80
2023-04-21T02:44:50.791Z,9.80
2023-04-21T02:47:40.273Z,9.70
2023-04-21T02:50:28.424Z,9.70
2023-04-21T02:53:16.676Z,9.70
2023-04-21T02:56:05.017Z,9.70
2023-04-21T02:58:53.191Z,9.70
2023-04-21T03:01:41.211Z,9.60
2023-04-21T03:04:32.418Z,9.60
2023-04-21T03:07:20.685Z,9.70
2023-04-21T03:10:08.924Z,9.60
2023-04-21T03:12:57.057Z,9.60
2023-04-21T03:15:46.377Z,9.70
2023-04-21T03:18:35.936Z,9.60
2023-04-21T03:21:25.402Z,9.60
2023-04-21T03:24:13.458Z,9.60
2023-04-21T03:27:01.834Z,9.60
2023-04-21T03:29:49.837Z,9.60
2023-04-21T03:32:37.908Z,9.60
2023-04-21T03:35:25.998Z,9.60
2023-04-21T03:38:15.436Z,9.60
2023-04-21T03:41:04.712Z,9.60
2023-04-21T03:43:52.905Z,9.60
2023-04-21T03:46:40.918Z,9.60
2023-04-21T03:49:28.932Z,9.60
2023-04-21T03:52:16.976Z,9.60
2023-04-21T03:55:08.960Z,9.60
2023-04-21T03:57:56.996Z,9.60
2023-04-21T04:00:45.041Z,9.50
2023-04-21T04:03:33.164Z,9.50
2023-04-21T04:06:21.392Z,9.50
2023-04-21T04:09:09.428Z,9.60
2023-04-21T04:11:58.782Z,9.60
2023-04-21T04:14:46.809Z,9.50
2023-04-21T04:17:34.918Z,9.50
2023-04-21T04:20:23.040Z,9.50
2023-04-21T04:23:11.170Z,9.60
2023-04-21T04:25:59.559Z,9.60
2023-04-21T04:28:49.029Z,9.60
2023-04-21T04:31:37.906Z,9.60
2023-04-21T04:34:26.170Z,9.60
2023-04-21T04:37:14.190Z,9.60
2023-04-21T04:40:02.256Z,9.60
2023-04-21T04:42:51.492Z,9.60
2023-04-21T04:45:40.923Z,9.60
2023-04-21T04:48:28.957Z,9.60
2023-04-21T04:51:17.347Z,9.70
2023-04-21T04:54:05.896Z,9.70
2023-04-21T04:56:53.995Z,9.70
2023-04-21T04:59:42.068Z,9.70
2023-04-21T05:02:32.029Z,9.70
2023-04-21T05:05:20.402Z,9.70
2023-04-21T05:08:08.522Z,9.80
2023-04-21T05:10:56.593Z,9.80
2023-04-21T05:13:44.689Z,9.80
2023-04-21T05:16:34.522Z,9.90
2023-04-21T05:19:23.980Z,9.90
2023-04-21T05:22:12.055Z,9.90
2023-04-21T05:25:00.325Z,10.00
2023-04-21T05:27:48.481Z,10.00
2023-04-21T05:30:36.971Z,10.10
2023-04-21T05:33:26.838Z,10.10
2023-04-21T05:36:16.404Z,10.20
2023-04-21T05:39:04.605Z,10.30
2023-04-21T05:41:52.644Z,10.30
2023-04-21T05:44:40.727Z,10.30
2023-04-21T05:47:28.807Z,10.40
2023-04-21T05:50:17.108Z,10.40
2023-04-21T05:53:06.544Z,10.40
2023-04-21T05:55:54.585Z,10.50
2023-04-21T05:58:42.791Z,10.50
2023-04-21T06:01:30.917Z,10.60
2023-04-21T06:04:19.719Z,10.70
2023-04-21T06:07:08.336Z,10.70
2023-04-21T06:09:58.416Z,10.80
2023-04-21T06:12:46.543Z,10.80
2023-04-21T06:15:34.640Z,10.90
2023-04-21T06:18:24.057Z,11.00
2023-04-21T06:21:12.243Z,11.00
2023-04-21T06:24:00.314Z,11.10
2023-04-21T06:26:49.751Z,11.20
2023-04-21T06:29:37.851Z,11.30
2023-04-21T06:32:25.973Z,11.40
2023-04-21T06:35:15.078Z,11.40
2023-04-21T06:38:03.462Z,11.50
2023-04-21T06:40:51.687Z,11.60
2023-04-21T06:43:41.446Z,11.60
2023-04-21T06:46:29.544Z,11.70
2023-04-21T06:49:17.912Z,11.80
2023-04-21T06:52:06.227Z,11.80
2023-04-21T06:54:54.323Z,12.00
2023-04-21T06:57:42.409Z,12.00
2023-04-21T07:00:31.837Z,12.10
2023-04-21T07:03:20.003Z,12.20
2023-04-21T07:06:08.292Z,12.20
2023-04-21T07:08:56.388Z,12.30
2023-04-21T07:11:44.514Z,12.40
2023-04-21T07:14:32.596Z,12.50
2023-04-21T07:17:22.010Z,12.60
2023-04-21T07:20:10.605Z,12.70
2023-04-21T07:22:58.745Z,12.80
2023-04-21T07:25:46.831Z,12.90
2023-04-21T07:28:34.922Z,13.00
2023-04-21T07:31:23.083Z,13.00
2023-04-21T07:34:12.539Z,13.10
2023-04-21T07:37:00.740Z,13.20
2023-04-21T07:39:48.857Z,13.30
2023-04-21T07:42:37.278Z,13.40
2023-04-21T07:45:25.814Z,13.50
2023-04-21T07:48:13.962Z,13.60
2023-04-21T07:51:03.624Z,13.70
2023-04-21T07:53:51.681Z,13.80
2023-04-21T07:56:40.196Z,13.90
2023-04-21T07:59:28.274Z,14.10
2023-04-21T08:02:16.366Z,14.20
2023-04-21T08:05:04.726Z,14.30
2023-04-21T08:07:54.250Z,14.30
2023-04-21T08:10:43.079Z,14.40
2023-04-21T08:13:31.154Z,14.50
2023-04-21T08:16:19.291Z,14.60
2023-04-21T08:19:07.904Z,14.70
2023-04-21T08:21:56.002Z,14.80
2023-04-21T08:24:45.456Z,14.90
2023-04-21T08:27:33.542Z,15.00
2023-04-21T08:30:21.639Z,15.10
2023-04-21T08:33:13.748Z,15.20
2023-04-21T08:36:09.763Z,15.30
2023-04-21T08:39:03.373Z,15.40
2023-04-21T08:41:53.050Z,15.50
2023-04-21T08:44:41.681Z,15.60
2023-04-21T08:47:29.940Z,15.70
2023-04-21T08:50:18.073Z,15.90
2023-04-21T08:53:06.169Z,16.00
2023-04-21T08:56:10.153Z,16.00
2023-04-21T08:59:00.553Z,16.20
2023-04-21T09:02:07.537Z,16.40
2023-04-21T09:04:56.267Z,16.50
2023-04-21T09:07:44.588Z,16.60
2023-04-21T09:10:32.776Z,16.60
2023-04-21T09:13:23.241Z,16.70
2023-04-21T09:16:18.046Z,16.80
2023-04-21T09:19:14.554Z,16.90
2023-04-21T09:22:02.634Z,17.00
2023-04-21T09:24:50.834Z,17.10
2023-04-21T09:27:39.164Z,17.30
2023-04-21T09:30:27.318Z,17.40
2023-04-21T09:33:29.093Z,17.40
2023-04-21T09:36:21.270Z,17.60
2023-04-21T09:42:01.754Z,17.80
2023-04-21T09:44:56.201Z,17.80
2023-04-21T09:47:50.466Z,18.00
2023-04-21T09:51:20.839Z,18.00
2023-04-21T09:53:49.529Z,18.20
2023-04-21T09:56:41.676Z,18.30
2023-04-21T09:59:31.735Z,18.50
2023-04-21T10:02:20.134Z,18.60
2023-04-21T10:05:08.849Z,18.60
2023-04-21T10:07:58.993Z,18.80
2023-04-21T10:10:47.740Z,18.80
2023-04-21T10:13:36.853Z,18.90
2023-04-21T10:16:26.531Z,19.10
2023-04-21T10:19:36.317Z,19.30
2023-04-21T10:22:29.549Z,19.40
2023-04-21T10:25:19.008Z,19.50
2023-04-21T10:28:07.473Z,19.50
2023-04-21T10:31:16.920Z,19.70
2023-04-21T10:34:15.146Z,19.80
2023-04-21T10:37:23.882Z,19.90
2023-04-21T10:40:43.065Z,20.10
2023-04-21T10:43:46.585Z,20.20
2023-04-21T10:46:38.130Z,20.40
2023-04-21T10:49:27.024Z,20.50
2023-04-21T10:52:16.425Z,20.70
2023-04-21T10:55:10.594Z,20.80
2023-04-21T10:57:59.272Z,20.80
2023-04-21T11:00:54.854Z,20.80
2023-04-21T11:03:43.111Z,20.80
2023-04-21T11:06:31.437Z,21.00
2023-04-21T11:09:19.559Z,21.00
2023-04-21T11:12:08.252Z,21.20
2023-04-21T11:14:56.362Z,21.40
2023-04-21T11:17:47.267Z,21.50
2023-04-21T11:20:35.988Z,21.60
2023-04-21T11:23:24.116Z,21.80
2023-04-21T11:26:12.204Z,21.60
2023-04-21T11:29:03.620Z,21.70
2023-04-21T11:31:53.772Z,21.80
2023-04-21T11:34:43.547Z,21.80
2023-04-21T11:37:31.933Z,22.00
2023-04-21T11:40:20.363Z,22.00
2023-04-21T11:43:09.379Z,22.20
2023-04-21T11:46:11.736Z,22.20
2023-04-21T11:49:00.963Z,22.30
2023-04-21T11:51:51.166Z,22.40
2023-04-21T11:54:39.939Z,22.60
2023-04-21T11:57:28.635Z,22.70
2023-04-21T12:00:17.270Z,22.80
2023-04-21T12:03:09.706Z,23.00
2023-04-21T12:05:58.575Z,22.90
2023-04-21T12:08:48.451Z,22.80
2023-04-21T12:11:36.557Z,22.90
2023-04-21T12:14:25.557Z,23.10
2023-04-21T12:17:13.745Z,23.20
2023-04-21T12:20:06.305Z,23.30
2023-04-21T12:22:54.573Z,23.40
2023-04-21T12:25:45.097Z,23.20
2023-04-21T12:28:33.171Z,23.00
2023-04-21T12:31:21.279Z,22.90
2023-04-21T12:34:09.487Z,23.20
2023-04-21T12:36:57.696Z,23.40
2023-04-21T12:39:46.034Z,23.50
2023-04-21T12:42:37.873Z,23.50
2023-04-21T12:45:26.538Z,23.70
2023-04-21T12:48:14.647Z,23.40
2023-04-21T12:51:02.765Z,23.30
2023-04-21T12:53:50.864Z,23.50
2023-04-21T12:56:40.185Z,23.90
2023-04-21T12:59:29.870Z,24.10
2023-04-21T13:02:18.208Z,24.20
2023-04-21T13:05:07.079Z,24.40
2023-04-21T13:07:55.261Z,24.40
2023-04-21T13:10:43.414Z,24.50
2023-04-21T13:13:31.571Z,24.60
2023-04-21T13:16:21.068Z,24.80
2023-04-21T13:19:09.194Z,25.20
2023-04-21T13:21:57.270Z,25.20
2023-04-21T13:24:45.376Z,25.40
2023-04-21T13:27:34.353Z,25.60
2023-04-21T13:30:22.468Z,25.70
2023-04-21T13:33:12.643Z,25.70
2023-04-21T13:36:00.895Z,25.90
2023-04-21T13:38:50.942Z,25.90
2023-04-21T13:41:39.242Z,26.10
2023-04-21T13:44:27.374Z,26.20
2023-04-21T13:47:16.102Z,26.40
2023-04-21T13:50:05.969Z,26.80
2023-04-21T13:52:54.045Z,27.30
2023-04-21T13:55:42.973Z,27.70
2023-04-21T13:58:31.640Z,27.80
2023-04-21T14:01:21.592Z,27.70
2023-04-21T14:04:10.182Z,27.80
2023-04-21T14:06:59.754Z,27.80
2023-04-21T14:09:47.820Z,27.80
2023-04-21T14:12:35.952Z,28.10
2023-04-21T14:15:24.063Z,28.50
2023-04-21T14:18:12.242Z,28.50
2023-04-21T14:21:00.399Z,28.70
2023-04-21T14:23:49.850Z,29.10
2023-04-21T14:26:37.914Z,29.50
2023-04-21T14:29:26.070Z,29.80
2023-04-21T14:32:14.173Z,30.30
2023-04-21T14:35:04.812Z,30.20
2023-04-21T14:37:54.773Z,29.30
2023-04-21T14:40:44.864Z,30.00
2023-04-21T14:43:32.989Z,30.60
2023-04-21T14:46:21.080Z,29.50
2023-04-21T14:49:09.288Z,30.00
2023-04-21T14:51:57.396Z,30.80
2023-04-21T14:54:45.621Z,31.70
2023-04-21T14:57:35.043Z,32.20
2023-04-21T15:00:23.675Z,32.20
2023-04-21T15:03:11.925Z,32.50
2023-04-21T15:06:00.164Z,32.50
2023-04-21T15:08:48.305Z,32.30
2023-04-21T15:11:36.482Z,32.30
2023-04-21T15:14:26.032Z,32.30
2023-04-21T15:17:14.529Z,31.20
2023-04-21T15:20:02.738Z,29.90
2023-04-21T15:22:50.972Z,29.50
2023-04-21T15:25:39.906Z,29.00
2023-04-21T15:28:28.198Z,29.50
2023-04-21T15:31:18.215Z,30.00
2023-04-21T15:34:06.439Z,30.40
2023-04-21T15:36:54.662Z,30.80
2023-04-21T15:39:42.747Z,31.40
2023-04-21T15:42:30.811Z,31.60
2023-04-21T15:45:19.016Z,32.00
2023-04-21T15:48:08.510Z,32.10
2023-04-21T15:50:57.223Z,31.80
2023-04-21T15:53:47.854Z,32.00
2023-04-21T15:56:36.120Z,32.10
2023-04-21T15:59:25.924Z,32.10
2023-04-21T16:02:14.765Z,32.10
2023-04-21T16:05:04.795Z,32.20
2023-04-21T16:07:53.056Z,32.30
2023-04-21T16:10:41.347Z,32.40
2023-04-21T16:13:29.709Z,32.00
2023-04-21T16:16:17.769Z,31.40
2023-04-21T16:19:06.118Z,31.00
2023-04-21T16:21:55.529Z,31.10
2023-04-21T16:24:43.801Z,31.30
2023-04-21T16:27:31.924Z,31.40
2023-04-21T16:30:20.090Z,31.20
2023-04-21T16:33:09.366Z,31.20
2023-04-21T16:35:57.728Z,31.20
2023-04-21T16:38:47.350Z,31.30
2023-04-21T16:41:35.485Z,30.90
2023-04-21T16:44:23.648Z,30.90
2023-04-21T16:47:11.848Z,30.80
2023-04-21T16:50:00.115Z,30.60
2023-04-21T16:52:48.242Z,30.50
2023-04-21T16:55:37.909Z,30.40
2023-04-21T16:58:26.364Z,29.90
2023-04-21T17:01:14.449Z,29.60
2023-04-21T17:04:02.922Z,29.40
2023-04-21T17:06:51.216Z,29.10
2023-04-21T17:09:39.342Z,28.80
2023-04-21T17:12:28.726Z,28.40
2023-04-21T17:15:16.816Z,28.10
2023-04-21T17:18:05.034Z,27.50
2023-04-21T17:20:53.124Z,27.40
2023-04-21T17:23:41.242Z,27.10
2023-04-21T17:26:29.355Z,26.80
2023-04-21T17:29:18.917Z,26.30
2023-04-21T17:32:07.067Z,25.90
2023-04-21T17:34:55.190Z,25.30
2023-04-21T17:37:43.255Z,24.50
2023-04-21T17:40:31.384Z,23.90
2023-04-21T17:43:19.582Z,23.30
2023-04-21T17:46:09.031Z,22.80
2023-04-21T17:48:57.193Z,22.40
2023-04-21T17:51:45.374Z,22.20
2023-04-21T17:54:33.525Z,21.80
2023-04-21T17:57:21.627Z,21.50
2023-04-21T18:00:11.513Z,21.20
2023-04-21T18:03:01.050Z,21.00
2023-04-21T18:05:49.301Z,20.70
2023-04-21T18:08:37.333Z,20.50
2023-04-21T18:11:25.559Z,20.30
2023-04-21T18:14:13.938Z,20.10
2023-04-21T18:17:02.146Z,20.00
2023-04-21T18:19:53.610Z,19.80
2023-04-21T18:22:42.774Z,19.70
2023-04-21T18:25:42.016Z,19.50
2023-04-21T18:28:31.999Z,19.40
2023-04-21T18:31:21.648Z,19.20
2023-04-21T18:34:11.607Z,19.10
2023-04-21T18:37:01.042Z,19.00
2023-04-21T18:39:49.101Z,18.80
2023-04-21T18:42:37.196Z,18.70
2023-04-21T18:45:25.302Z,18.60
2023-04-21T18:48:13.417Z,18.50
2023-04-21T18:51:01.519Z,18.30
2023-04-21T18:53:50.938Z,18.20
2023-04-21T18:56:39.043Z,18.10
2023-04-21T18:59:27.134Z,18.00
2023-04-21T19:02:16.409Z,17.90
2023-04-21T19:05:04.953Z,17.80
2023-04-21T19:07:53.036Z,17.70
2023-04-21T19:10:42.771Z,17.70
2023-04-21T19:13:30.832Z,17.60
2023-04-21T19:16:18.994Z,17.40
2023-04-21T19:19:07.131Z,17.40
2023-04-21T19:21:55.194Z,17.40
2023-04-21T19:24:43.250Z,17.30
2023-04-21T19:27:32.700Z,17.20
2023-04-21T19:30:21.736Z,17.10
2023-04-21T19:33:09.843Z,17.00
2023-04-21T19:35:58.303Z,16.90
2023-04-21T19:38:47.102Z,16.80
2023-04-21T19:41:35.212Z,16.70
2023-04-21T19:44:25.025Z,16.60
2023-04-21T19:47:13.119Z,16.60
2023-04-21T19:50:01.361Z,16.50
2023-04-21T19:52:49.503Z,16.40
2023-04-21T19:55:37.556Z,16.40
2023-04-21T19:58:39.608Z,16.20
2023-04-21T20:01:30.450Z,16.20
2023-04-21T20:04:18.696Z,16.10
2023-04-21T20:07:06.989Z,16.10
2023-04-21T20:09:55.080Z,16.00
2023-04-21T20:12:43.201Z,15.90
2023-04-21T20:15:31.311Z,15.80
2023-04-21T20:18:21.818Z,15.70
2023-04-21T20:21:09.862Z,15.60
2023-04-21T20:23:58.011Z,15.50
2023-04-21T20:26:46.323Z,15.50
2023-04-21T20:29:34.463Z,15.40
2023-04-21T20:32:22.547Z,15.40
2023-04-21T20:35:16.307Z,15.30
2023-04-21T20:38:05.721Z,15.20
2023-04-21T20:40:54.003Z,15.20
2023-04-21T20:43:42.198Z,15.10
2023-04-21T20:46:30.458Z,15.10
2023-04-21T20:49:18.588Z,15.00
2023-04-21T20:52:08.013Z,15.00
2023-04-21T20:54:56.066Z,15.00
2023-04-21T20:57:44.614Z,14.90
2023-04-21T21:00:34.409Z,14.90
2023-04-21T21:03:22.997Z,14.80
2023-04-21T21:06:11.296Z,14.70
2023-04-21T21:09:01.049Z,14.70
2023-04-21T21:11:49.712Z,14.60
2023-04-21T21:14:37.808Z,14.50
2023-04-21T21:17:26.018Z,14.40
2023-04-21T21:20:14.205Z,14.40
2023-04-21T21:23:02.402Z,14.40
2023-04-21T21:25:51.826Z,14.40
2023-04-21T21:28:39.871Z,14.30
2023-04-21T21:31:28.150Z,14.20
2023-04-21T21:34:16.231Z,14.20
2023-04-21T21:37:04.448Z,14.10
2023-04-21T21:39:52.694Z,14.10
2023-04-21T21:42:42.168Z,14.00
2023-04-21T21:45:30.303Z,14.00
2023-04-21T21:48:18.410Z,13.90
2023-04-21T21:51:06.576Z,13.90
2023-04-21T21:53:54.674Z,13.80
2023-04-21T21:56:42.784Z,13.80
2023-04-21T21:59:32.225Z,13.70
2023-04-21T22:02:20.405Z,13.70
2023-04-21T22:05:09.996Z,13.60
2023-04-21T22:07:58.335Z,13.50
2023-04-21T22:10:46.427Z,13.50
2023-04-21T22:13:34.689Z,13.50
2023-04-21T22:16:24.217Z,13.50
2023-04-21T22:19:12.586Z,13.40
2023-04-21T22:22:00.666Z,13.40
2023-04-21T22:24:48.730Z,13.30
2023-04-21T22:27:36.817Z,13.30
2023-04-21T22:30:25.017Z,13.20
2023-04-21T22:33:14.554Z,13.20
2023-04-21T22:36:02.646Z,13.10
2023-04-21T22:38:50.723Z,13.10
2023-04-21T22:41:38.978Z,13.00
2023-04-21T22:44:27.056Z,13.00
2023-04-21T22:47:15.227Z,12.90
2023-04-21T22:50:05.362Z,12.90
2023-04-21T22:52:53.460Z,12.90
2023-04-21T22:55:41.557Z,12.90
2023-04-21T22:58:29.630Z,12.80
2023-04-21T23:01:17.742Z,12.80
2023-04-21T23:04:06.089Z,12.80
2023-04-21T23:06:55.637Z,12.70
2023-04-21T23:09:43.720Z,12.70
2023-04-21T23:12:31.888Z,12.60
2023-04-21T23:15:20.077Z,12.60
2023-04-21T23:18:08.173Z,12.60
2023-04-21T23:20:56.269Z,12.50
2023-04-21T23:23:45.691Z,12.50
2023-04-21T23:26:33.824Z,12.50
2023-04-21T23:29:21.900Z,12.50
2023-04-21T23:32:10.034Z,12.40
2023-04-21T23:34:58.189Z,12.40
2023-04-21T23:37:46.576Z,12.40
2023-04-21T23:40:36.125Z,12.30
2023-04-21T23:43:24.229Z,12.30
2023-04-21T23:46:12.382Z,12.40
2023-04-21T23:49:00.656Z,12.30
2023-04-21T23:51:48.822Z,12.20
2023-04-21T23:54:36.945Z,12.20
2023-04-21T23:57:26.375Z,12.20
